createdAt,value
2023-02-24T00:02:26.443Z,6.7
2023-02-24T00:05:26.437Z,6.7
2023-02-24T00:08:26.425Z,6.7
2023-02-24T00:11:26.424Z,6.7
2023-02-24T00:14:26.448Z,6.7
2023-02-24T00:17:26.456Z,6.7
2023-02-24T00:20:26.432Z,6.7
2023-02-24T00:23:26.427Z,6.7
2023-02-24T00:26:26.438Z,6.7
2023-02-24T00:29:26.438Z,6.7
2023-02-24T00:32:26.588Z,6.7
2023-02-24T00:35:26.451Z,6.7
2023-02-24T00:38:26.449Z,6.7
2023-02-24T00:41:26.458Z,6.7
2023-02-24T00:44:26.455Z,6.7
2023-02-24T00:47:26.452Z,6.7
2023-02-24T00:50:26.493Z,6.7
2023-02-24T00:53:26.460Z,6.7
2023-02-24T00:56:26.464Z,6.7
2023-02-24T00:59:26.466Z,6.7
2023-02-24T01:02:26.466Z,6.7
2023-02-24T01:05:26.496Z,6.6
2023-02-24T01:08:26.499Z,6.6
2023-02-24T01:11:26.467Z,6.7
2023-02-24T01:14:26.465Z,6.6
2023-02-24T01:17:26.476Z,6.6
2023-02-24T01:20:26.481Z,6.6
2023-02-24T01:23:26.474Z,6.6
2023-02-24T01:26:26.497Z,6.6
2023-02-24T01:29:26.477Z,6.6
2023-02-24T01:32:26.653Z,6.6
2023-02-24T01:35:26.498Z,6.6
2023-02-24T01:38:26.485Z,6.6
2023-02-24T01:41:26.484Z,6.6
2023-02-24T01:44:26.520Z,6.6
2023-02-24T01:47:26.490Z,6.6
2023-02-24T01:50:26.504Z,6.6
2023-02-24T01:53:26.493Z,6.6
2023-02-24T01:56:26.504Z,6.6
2023-02-24T01:59:26.509Z,6.6
2023-02-24T02:02:26.726Z,6.6
2023-02-24T02:05:26.513Z,6.6
2023-02-24T02:08:26.505Z,6.6
2023-02-24T02:11:26.509Z,6.6
2023-02-24T02:14:26.511Z,6.6
2023-02-24T02:17:26.504Z,6.6
2023-02-24T02:20:26.538Z,6.6
2023-02-24T02:23:26.507Z,6.6
2023-02-24T02:26:26.510Z,6.6
2023-02-24T02:29:26.507Z,6.6
2023-02-24T02:32:26.591Z,6.6
2023-02-24T02:35:26.528Z,6.6
2023-02-24T02:38:26.556Z,6.6
2023-02-24T02:41:26.516Z,6.6
2023-02-24T02:44:26.524Z,6.6
2023-02-24T02:47:26.519Z,6.6
2023-02-24T02:50:26.535Z,6.6
2023-02-24T02:53:26.527Z,6.6
2023-02-24T02:56:26.550Z,6.6
2023-02-24T02:59:26.526Z,6.6
2023-02-24T03:02:26.527Z,6.6
2023-02-24T03:05:26.544Z,6.6
2023-02-24T03:08:26.538Z,6.6
2023-02-24T03:11:26.533Z,6.6
2023-02-24T03:14:26.559Z,6.6
2023-02-24T03:17:26.536Z,6.6
2023-02-24T03:20:26.549Z,6.6
2023-02-24T03:23:26.545Z,6.5
2023-02-24T03:26:26.547Z,6.5
2023-02-24T03:29:26.551Z,6.5
2023-02-24T03:32:26.718Z,6.5
2023-02-24T03:35:26.570Z,6.5
2023-02-24T03:38:26.555Z,6.5
2023-02-24T03:41:26.560Z,6.5
2023-02-24T03:44:26.568Z,6.5
2023-02-24T03:47:26.625Z,6.5
2023-02-24T03:50:26.599Z,6.5
2023-02-24T03:53:26.571Z,6.5
2023-02-24T03:56:26.572Z,6.5
2023-02-24T03:59:26.573Z,6.5
2023-02-24T04:02:26.608Z,6.5
2023-02-24T04:05:26.587Z,6.5
2023-02-24T04:08:26.606Z,6.5
2023-02-24T04:11:26.607Z,6.5
2023-02-24T04:14:26.585Z,6.4
2023-02-24T04:17:26.590Z,6.4
2023-02-24T04:20:26.603Z,6.4
2023-02-24T04:23:26.595Z,6.4
2023-02-24T04:26:26.627Z,6.4
2023-02-24T04:29:26.606Z,6.4
2023-02-24T04:32:26.769Z,6.4
2023-02-24T04:35:26.627Z,6.4
2023-02-24T04:38:26.612Z,6.4
2023-02-24T04:41:26.610Z,6.4
2023-02-24T04:44:26.641Z,6.4
2023-02-24T04:47:26.640Z,6.4
2023-02-24T04:50:26.631Z,6.4
2023-02-24T04:53:26.626Z,6.4
2023-02-24T04:56:26.642Z,6.4
2023-02-24T04:59:26.635Z,6.4
2023-02-24T05:02:26.657Z,6.4
2023-02-24T05:05:26.661Z,6.4
2023-02-24T05:08:26.642Z,6.4
2023-02-24T05:11:26.657Z,6.4
2023-02-24T05:14:26.654Z,6.4
2023-02-24T05:17:26.651Z,6.4
2023-02-24T05:20:26.707Z,6.4
2023-02-24T05:23:26.680Z,6.4
2023-02-24T05:26:26.677Z,6.4
2023-02-24T05:29:26.677Z,6.4
2023-02-24T05:32:26.778Z,6.4
2023-02-24T05:35:26.695Z,6.4
2023-02-24T05:38:26.719Z,6.4
2023-02-24T05:41:26.688Z,6.4
2023-02-24T05:44:26.767Z,6.4
2023-02-24T05:47:26.695Z,6.4
2023-02-24T05:50:26.718Z,6.4
2023-02-24T05:53:26.696Z,6.4
2023-02-24T05:56:26.728Z,6.4
2023-02-24T05:59:26.708Z,6.4
2023-02-24T06:02:26.733Z,6.4
2023-02-24T06:05:26.746Z,6.3
2023-02-24T06:08:26.716Z,6.3
2023-02-24T06:11:26.815Z,6.4
2023-02-24T06:14:26.745Z,6.3
2023-02-24T06:17:26.731Z,6.3
2023-02-24T06:20:26.753Z,6.3
2023-02-24T06:23:26.724Z,6.3
2023-02-24T06:26:26.737Z,6.3
2023-02-24T06:29:26.735Z,6.3
2023-02-24T06:32:26.970Z,6.3
2023-02-24T06:35:26.756Z,6.3
2023-02-24T06:38:26.754Z,6.3
2023-02-24T06:41:26.753Z,6.3
2023-02-24T06:44:26.757Z,6.3
2023-02-24T06:47:26.767Z,6.3
2023-02-24T06:50:26.803Z,6.3
2023-02-24T06:53:26.776Z,6.2
2023-02-24T06:56:26.783Z,6.2
2023-02-24T06:59:26.784Z,6.2
2023-02-24T07:02:26.812Z,6.2
2023-02-24T07:05:26.812Z,6.2
2023-02-24T07:08:26.857Z,6.2
2023-02-24T07:11:26.814Z,6.2
2023-02-24T07:14:26.815Z,6.2
2023-02-24T07:17:26.818Z,6.2
2023-02-24T07:20:26.831Z,6.2
2023-02-24T07:23:26.828Z,6.2
2023-02-24T07:26:26.852Z,6.2
2023-02-24T07:29:26.836Z,6.2
2023-02-24T07:32:26.870Z,6.2
2023-02-24T07:35:26.857Z,6.2
2023-02-24T07:38:26.861Z,6.2
2023-02-24T07:41:26.889Z,6.2
2023-02-24T07:44:27.090Z,6.2
2023-02-24T07:47:26.872Z,6.2
2023-02-24T07:50:26.881Z,6.2
2023-02-24T07:53:26.869Z,6.2
2023-02-24T07:56:26.929Z,6.2
2023-02-24T07:59:26.881Z,6.2
2023-02-24T08:02:26.975Z,6.2
2023-02-24T08:05:26.943Z,6.2
2023-02-24T08:08:26.903Z,6.2
2023-02-24T08:11:26.903Z,6.2
2023-02-24T08:14:26.914Z,6.2
2023-02-24T08:17:27.067Z,6.2
2023-02-24T08:20:26.955Z,6.2
2023-02-24T08:23:26.929Z,6.2
2023-02-24T08:26:26.962Z,6.2
2023-02-24T08:29:26.941Z,6.2
2023-02-24T08:32:27.059Z,6.2
2023-02-24T08:35:26.957Z,6.2
2023-02-24T08:38:26.992Z,6.2
2023-02-24T08:41:26.964Z,6.2
2023-02-24T08:44:26.969Z,6.2
2023-02-24T08:47:26.976Z,6.2
2023-02-24T08:50:27.020Z,6.1
2023-02-24T08:53:26.989Z,6.2
2023-02-24T08:56:27.095Z,6.1
2023-02-24T08:59:27.006Z,6.1
2023-02-24T09:02:27.014Z,6.1
2023-02-24T09:05:27.023Z,6.1
2023-02-24T09:08:27.026Z,6.1
2023-02-24T09:11:27.031Z,6.1
2023-02-24T09:14:28.379Z,6.1
2023-02-24T09:17:27.035Z,6.1
2023-02-24T09:20:27.072Z,6.1
2023-02-24T09:23:27.056Z,6.1
2023-02-24T09:26:27.059Z,6.1
2023-02-24T09:29:27.062Z,6.1
2023-02-24T09:32:27.244Z,6.1
2023-02-24T09:35:27.080Z,6.1
2023-02-24T09:38:27.082Z,6.1
2023-02-24T09:41:27.088Z,6.1
2023-02-24T09:44:27.094Z,6.1
2023-02-24T09:47:27.102Z,6.1
2023-02-24T09:50:51.448Z,6.1
2023-02-24T09:53:27.116Z,6.1
2023-02-24T09:56:27.130Z,6.1
2023-02-24T09:59:27.127Z,6.1
2023-02-24T10:02:27.172Z,6.1
2023-02-24T10:05:27.165Z,6.1
2023-02-24T10:08:27.197Z,6.1
2023-02-24T10:11:27.157Z,6.1
2023-02-24T10:14:29.370Z,6.1
2023-02-24T10:17:27.164Z,6.1
2023-02-24T10:20:27.184Z,6.1
2023-02-24T10:23:27.188Z,6.1
2023-02-24T10:26:27.210Z,6.1
2023-02-24T10:29:27.197Z,6.1
2023-02-24T10:32:27.351Z,6
2023-02-24T10:35:27.227Z,6.1
2023-02-24T10:38:27.221Z,6
2023-02-24T10:41:27.226Z,6.1
2023-02-24T10:44:27.272Z,6
2023-02-24T10:47:27.248Z,6
2023-02-24T10:50:27.265Z,6
2023-02-24T10:53:27.291Z,6
2023-02-24T10:56:27.278Z,6
2023-02-24T10:59:27.300Z,6
2023-02-24T11:02:27.387Z,6
2023-02-24T11:05:27.475Z,6
2023-02-24T11:08:27.296Z,6
2023-02-24T11:11:27.308Z,6
2023-02-24T11:14:27.309Z,6
2023-02-24T11:17:27.494Z,6
2023-02-24T11:20:36.229Z,6
2023-02-24T11:23:27.382Z,6
2023-02-24T11:26:27.405Z,6
2023-02-24T11:29:27.344Z,6
2023-02-24T11:32:27.534Z,6
2023-02-24T11:35:27.373Z,6
2023-02-24T11:38:27.388Z,6
2023-02-24T11:41:27.367Z,6
2023-02-24T11:44:27.370Z,6
2023-02-24T11:47:27.377Z,6
2023-02-24T11:50:27.398Z,6
2023-02-24T11:53:27.405Z,5.9
2023-02-24T11:56:27.414Z,5.9
2023-02-24T11:59:27.394Z,5.9
2023-02-24T12:02:27.437Z,6
2023-02-24T12:05:27.453Z,5.9
2023-02-24T12:08:27.408Z,5.9
2023-02-24T12:11:28.164Z,5.9
2023-02-24T12:14:27.685Z,5.9
2023-02-24T12:17:27.415Z,5.9
2023-02-24T12:20:27.600Z,5.9
2023-02-24T12:23:27.424Z,5.9
2023-02-24T12:26:27.424Z,5.9
2023-02-24T12:29:27.428Z,5.9
2023-02-24T12:32:27.648Z,5.9
2023-02-24T12:35:27.439Z,5.9
2023-02-24T12:38:27.440Z,5.9
2023-02-24T12:41:27.438Z,5.9
2023-02-24T12:44:27.441Z,5.9
2023-02-24T12:47:27.445Z,5.9
2023-02-24T12:50:27.474Z,5.9
2023-02-24T12:53:27.440Z,5.9
2023-02-24T12:56:27.447Z,5.9
2023-02-24T12:59:27.455Z,5.9
2023-02-24T13:02:27.527Z,5.9
2023-02-24T13:05:27.463Z,5.9
2023-02-24T13:08:27.476Z,5.9
2023-02-24T13:11:27.453Z,5.9
2023-02-24T13:14:27.474Z,5.9
2023-02-24T13:17:27.486Z,5.9
2023-02-24T13:20:27.481Z,5.9
2023-02-24T13:23:27.468Z,5.9
2023-02-24T13:26:27.500Z,5.9
2023-02-24T13:29:27.486Z,5.9
2023-02-24T13:32:27.569Z,5.9
2023-02-24T13:35:27.515Z,5.9
2023-02-24T13:38:27.518Z,5.9
2023-02-24T13:41:27.535Z,5.9
2023-02-24T13:44:27.569Z,5.9
2023-02-24T13:47:27.544Z,5.9
2023-02-24T13:50:27.574Z,5.9
2023-02-24T13:53:27.575Z,5.9
2023-02-24T13:56:27.582Z,5.9
2023-02-24T13:59:27.593Z,5.9
2023-02-24T14:02:27.710Z,5.9
2023-02-24T14:05:27.620Z,5.9
2023-02-24T14:08:27.621Z,5.9
2023-02-24T14:11:27.650Z,5.9
2023-02-24T14:14:27.638Z,5.9
2023-02-24T14:17:27.646Z,5.9
2023-02-24T14:20:27.694Z,5.9
2023-02-24T14:23:27.674Z,5.9
2023-02-24T14:26:27.675Z,5.9
2023-02-24T14:29:27.695Z,5.9
2023-02-24T14:32:27.797Z,5.9
2023-02-24T14:35:27.727Z,5.8
2023-02-24T14:38:27.782Z,5.9
2023-02-24T14:41:27.739Z,5.9
2023-02-24T14:44:27.762Z,5.9
2023-02-24T14:47:27.755Z,5.8
2023-02-24T14:50:27.791Z,5.8
2023-02-24T14:53:27.782Z,5.8
2023-02-24T14:56:27.941Z,5.8
2023-02-24T14:59:27.808Z,5.9
2023-02-24T15:02:27.805Z,5.9
2023-02-24T15:05:27.835Z,5.8
2023-02-24T15:08:27.841Z,5.8
2023-02-24T15:11:27.850Z,5.8
2023-02-24T15:14:27.896Z,5.8
2023-02-24T15:17:27.880Z,5.8
2023-02-24T15:20:27.891Z,5.8
2023-02-24T15:23:27.918Z,5.8
2023-02-24T15:26:27.910Z,5.8
2023-02-24T15:29:27.929Z,5.8
2023-02-24T15:32:28.055Z,5.8
2023-02-24T15:35:27.955Z,5.8
2023-02-24T15:38:27.956Z,5.8
2023-02-24T15:41:27.971Z,5.8
2023-02-24T15:44:27.977Z,5.8
2023-02-24T15:47:27.993Z,5.8
2023-02-24T15:50:28.141Z,5.8
2023-02-24T15:53:28.004Z,5.8
2023-02-24T15:56:28.013Z,5.8
2023-02-24T15:59:28.022Z,5.8
2023-02-24T16:02:28.033Z,5.8
2023-02-24T16:05:28.042Z,5.8
2023-02-24T16:08:28.115Z,5.8
2023-02-24T16:11:28.049Z,5.8
2023-02-24T16:14:28.059Z,5.8
2023-02-24T16:17:28.103Z,5.8
2023-02-24T16:20:28.077Z,5.8
2023-02-24T16:23:28.081Z,5.7
2023-02-24T16:26:28.123Z,5.8
2023-02-24T16:29:28.108Z,5.7
2023-02-24T16:32:28.308Z,5.7
2023-02-24T16:35:28.110Z,5.7
2023-02-24T16:38:28.128Z,5.7
2023-02-24T16:41:28.116Z,5.7
2023-02-24T16:44:28.162Z,5.7
2023-02-24T16:47:28.158Z,5.7
2023-02-24T16:50:28.141Z,5.7
2023-02-24T16:53:28.137Z,5.7
2023-02-24T16:56:28.148Z,5.7
2023-02-24T16:59:28.142Z,5.7
2023-02-24T17:02:28.166Z,5.7
2023-02-24T17:05:28.906Z,5.7
2023-02-24T17:08:28.165Z,5.7
2023-02-24T17:11:28.166Z,5.7
2023-02-24T17:14:28.168Z,5.7
2023-02-24T17:17:28.176Z,5.7
2023-02-24T17:20:28.211Z,5.7
2023-02-24T17:23:28.191Z,5.7
2023-02-24T17:26:28.193Z,5.7
2023-02-24T17:29:28.201Z,5.7
2023-02-24T17:32:28.344Z,5.7
2023-02-24T17:35:28.231Z,5.7
2023-02-24T17:38:28.235Z,5.7
2023-02-24T17:41:28.217Z,5.7
2023-02-24T17:44:28.224Z,5.7
2023-02-24T17:47:28.235Z,5.7
2023-02-24T17:50:28.236Z,5.7
2023-02-24T17:53:28.232Z,5.7
2023-02-24T17:56:28.255Z,5.7
2023-02-24T17:59:28.238Z,5.7
2023-02-24T18:02:28.370Z,5.7
2023-02-24T18:05:28.265Z,5.7
2023-02-24T18:08:28.246Z,5.7
2023-02-24T18:11:28.269Z,5.7
2023-02-24T18:14:28.296Z,5.7
2023-02-24T18:17:28.269Z,5.7
2023-02-24T18:20:28.280Z,5.7
2023-02-24T18:23:28.272Z,5.7
2023-02-24T18:26:28.664Z,5.7
2023-02-24T18:29:28.276Z,5.7
2023-02-24T18:32:28.491Z,5.7
2023-02-24T18:35:28.300Z,5.7
2023-02-24T18:38:28.297Z,5.7
2023-02-24T18:41:28.302Z,5.7
2023-02-24T18:44:28.327Z,5.7
2023-02-24T18:47:28.307Z,5.7
2023-02-24T18:50:28.351Z,5.7
2023-02-24T18:53:28.323Z,5.7
2023-02-24T18:56:28.331Z,5.7
2023-02-24T18:59:28.329Z,5.7
2023-02-24T19:02:28.363Z,5.7
2023-02-24T19:05:37.792Z,5.7
2023-02-24T19:08:28.485Z,5.7
2023-02-24T19:11:28.345Z,5.7
2023-02-24T19:14:28.358Z,5.7
2023-02-24T19:17:28.360Z,5.7
2023-02-24T19:20:28.366Z,5.7
2023-02-24T19:23:28.364Z,5.7
2023-02-24T19:26:28.392Z,5.7
2023-02-24T19:29:28.390Z,5.7
2023-02-24T19:32:28.498Z,5.7
2023-02-24T19:35:28.388Z,5.7
2023-02-24T19:38:28.409Z,5.7
2023-02-24T19:41:28.385Z,5.7
2023-02-24T19:44:28.412Z,5.7
2023-02-24T19:47:28.396Z,5.7
2023-02-24T19:50:28.434Z,5.7
2023-02-24T19:53:28.398Z,5.6
2023-02-24T19:56:28.406Z,5.6
2023-02-24T19:59:28.410Z,5.7
2023-02-24T20:02:28.440Z,5.6
2023-02-24T20:05:28.430Z,5.7
2023-02-24T20:08:28.436Z,5.6
2023-02-24T20:11:28.432Z,5.7
2023-02-24T20:14:28.434Z,5.6
2023-02-24T20:17:28.436Z,5.6
2023-02-24T20:20:28.482Z,5.6
2023-02-24T20:23:28.462Z,5.6
2023-02-24T20:26:28.456Z,5.6
2023-02-24T20:29:28.458Z,5.6
2023-02-24T20:32:28.558Z,5.6
2023-02-24T20:35:28.512Z,5.6
2023-02-24T20:38:28.490Z,5.6
2023-02-24T20:41:28.475Z,5.6
2023-02-24T20:44:28.508Z,5.6
2023-02-24T20:47:28.480Z,5.6
2023-02-24T20:50:28.492Z,5.6
2023-02-24T20:53:28.496Z,5.6
2023-02-24T20:56:28.561Z,5.6
2023-02-24T20:59:28.500Z,5.6
2023-02-24T21:02:28.507Z,5.6
2023-02-24T21:05:28.517Z,5.6
2023-02-24T21:08:28.510Z,5.6
2023-02-24T21:11:28.514Z,5.6
2023-02-24T21:14:28.543Z,5.6
2023-02-24T21:17:29.806Z,5.6
2023-02-24T21:20:28.561Z,5.6
2023-02-24T21:23:28.528Z,5.6
2023-02-24T21:26:28.537Z,5.6
2023-02-24T21:29:28.533Z,5.6
2023-02-24T21:32:28.586Z,5.6
2023-02-24T21:35:28.549Z,5.6
2023-02-24T21:38:28.542Z,5.6
2023-02-24T21:41:28.551Z,5.6
2023-02-24T21:44:28.570Z,5.6
2023-02-24T21:47:28.563Z,5.6
2023-02-24T21:50:28.601Z,5.6
2023-02-24T21:53:28.564Z,5.6
2023-02-24T21:56:28.576Z,5.6
2023-02-24T21:59:28.573Z,5.6
2023-02-24T22:02:28.575Z,5.6
2023-02-24T22:05:28.596Z,5.6
2023-02-24T22:08:28.607Z,5.6
2023-02-24T22:11:28.595Z,5.6
2023-02-24T22:14:28.613Z,5.6
2023-02-24T22:17:28.613Z,5.6
2023-02-24T22:20:28.622Z,5.6
2023-02-24T22:23:28.614Z,5.6
2023-02-24T22:26:28.646Z,5.6
2023-02-24T22:29:28.627Z,5.6
2023-02-24T22:32:28.741Z,5.6
2023-02-24T22:35:28.653Z,5.6
2023-02-24T22:38:28.647Z,5.6
2023-02-24T22:41:28.649Z,5.6
2023-02-24T22:44:28.683Z,5.6
2023-02-24T22:47:28.657Z,5.6
2023-02-24T22:50:28.675Z,5.6
2023-02-24T22:53:28.667Z,5.6
2023-02-24T22:56:28.670Z,5.6
2023-02-24T22:59:28.673Z,5.6
2023-02-24T23:02:28.745Z,5.6
2023-02-24T23:05:28.686Z,5.6
2023-02-24T23:08:28.677Z,5.6
2023-02-24T23:11:28.682Z,5.6
2023-02-24T23:14:28.697Z,5.6
2023-02-24T23:17:28.696Z,5.6
2023-02-24T23:20:28.731Z,5.6
2023-02-24T23:23:28.708Z,5.6
2023-02-24T23:26:28.706Z,5.5
2023-02-24T23:29:28.708Z,5.6
2023-02-24T23:32:28.840Z,5.6
2023-02-24T23:35:28.727Z,5.5
2023-02-24T23:38:28.749Z,5.5
2023-02-24T23:41:28.737Z,5.5
2023-02-24T23:44:28.758Z,5.5
2023-02-24T23:47:28.755Z,5.5
2023-02-24T23:50:28.765Z,5.6
2023-02-24T23:53:28.758Z,5.5
2023-02-24T23:56:28.783Z,5.5
2023-02-24T23:59:28.765Z,5.5
